Time;durP1;ratioP1;P1;durP2;ratioP2;P2;SDS_P1;SDS_P2;PMS_P1;PMS_P2;Temp;Humidity;BMP_temperature;BMP_pressure;BME280_temperature;BME280_humidity;BME280_pressure;Samples;Min_cycle;Max_cycle;Signal;HPM_P1;HPM_P2
2023/06/03 00:00:22;;;;;;;2.30;2.10;;;25.40;51.80;;;;;;5076055;28;20044;-67
2023/06/03 00:02:52;;;;;;;2.00;1.90;;;25.40;51.80;;;;;;5076433;28;20559;-66
2023/06/03 00:05:21;;;;;;;2.20;2.00;;;25.40;51.90;;;;;;5075653;28;20067;-66
2023/06/03 00:07:49;;;;;;;2.10;1.90;;;25.40;51.90;;;;;;5076449;28;20049;-66
2023/06/03 00:10:16;;;;;;;2.25;2.05;;;25.40;51.90;;;;;;5075906;28;20048;-67
2023/06/03 00:12:45;;;;;;;2.30;2.10;;;25.40;51.90;;;;;;5076568;28;20063;-66
2023/06/03 00:15:12;;;;;;;2.08;1.98;;;25.40;51.90;;;;;;5076171;28;20056;-67
2023/06/03 00:17:39;;;;;;;2.45;2.25;;;25.40;51.90;;;;;;5075016;28;20049;-66
2023/06/03 00:20:09;;;;;;;2.35;2.15;;;25.40;51.90;;;;;;5074128;28;20078;-67
2023/06/03 00:22:38;;;;;;;2.35;2.17;;;25.40;51.90;;;;;;5074924;28;20052;-66
2023/06/03 00:25:07;;;;;;;2.55;2.10;;;25.40;51.90;;;;;;5073938;28;20052;-67
2023/06/03 00:27:35;;;;;;;1.80;1.70;;;25.40;52.00;;;;;;5075069;28;20420;-66
2023/06/03 00:30:07;;;;;;;2.17;2.00;;;25.40;51.90;;;;;;5075999;28;20048;-67
2023/06/03 00:32:34;;;;;;;2.17;1.98;;;25.40;51.90;;;;;;5073820;28;20048;-66
2023/06/03 00:35:02;;;;;;;2.40;2.22;;;25.40;51.90;;;;;;5069459;28;20067;-69
2023/06/03 00:37:29;;;;;;;1.88;1.77;;;25.40;51.90;;;;;;5055105;28;20045;-66
2023/06/03 00:39:56;;;;;;;3.20;2.20;;;25.40;51.90;;;;;;5054845;28;20064;-66
2023/06/03 00:42:24;;;;;;;1.95;1.85;;;25.40;51.90;;;;;;5055741;28;20053;-66
2023/06/03 00:44:51;;;;;;;2.13;1.92;;;25.40;51.90;;;;;;5054946;28;20056;-66
2023/06/03 00:47:18;;;;;;;2.50;2.30;;;25.40;51.90;;;;;;5055883;28;20064;-66
2023/06/03 00:49:46;;;;;;;2.35;1.90;;;25.40;51.90;;;;;;5054675;28;20123;-66
2023/06/03 00:52:16;;;;;;;1.90;1.80;;;25.40;51.90;;;;;;5053846;28;20517;-67
2023/06/03 00:54:44;;;;;;;2.38;1.80;;;25.40;51.90;;;;;;5054865;28;20045;-66
2023/06/03 00:57:11;;;;;;;2.67;2.28;;;25.40;51.90;;;;;;5055477;28;20102;-67
2023/06/03 00:59:39;;;;;;;2.08;1.98;;;25.40;51.80;;;;;;5055312;28;20619;-66
2023/06/03 01:02:06;;;;;;;2.50;2.30;;;25.40;51.90;;;;;;5054671;28;20048;-66
2023/06/03 01:04:34;;;;;;;2.40;2.13;;;25.40;51.90;;;;;;5055518;28;20462;-66
2023/06/03 01:07:29;;;;;;;2.28;2.08;;;25.40;51.90;;;;;;5055141;28;20485;-66
2023/06/03 01:10:22;;;;;;;1.90;1.80;;;25.40;51.90;;;;;;5054334;28;20522;-66
2023/06/03 01:13:22;;;;;;;2.22;2.05;;;25.40;51.90;;;;;;5054673;28;20045;-66
2023/06/03 01:15:54;;;;;;;1.77;1.67;;;25.40;51.90;;;;;;5055052;28;20057;-67
2023/06/03 01:18:21;;;;;;;2.47;1.88;;;25.40;51.90;;;;;;5055094;28;20401;-67
2023/06/03 01:20:50;;;;;;;2.08;1.90;;;25.30;51.90;;;;;;5054823;28;20052;-66
2023/06/03 01:23:33;;;;;;;2.58;2.28;;;25.30;51.90;;;;;;5055309;28;20064;-66
2023/06/03 01:26:04;;;;;;;3.40;2.42;;;25.40;52.00;;;;;;5054753;28;20052;-66
2023/06/03 01:28:31;;;;;;;2.38;2.17;;;25.40;52.00;;;;;;5054648;28;20477;-66
2023/06/03 01:31:01;;;;;;;1.85;1.75;;;25.30;51.90;;;;;;5054979;28;20045;-66
2023/06/03 01:33:29;;;;;;;2.00;1.90;;;25.30;52.10;;;;;;5054998;28;20052;-67
2023/06/03 01:35:58;;;;;;;2.60;2.30;;;25.30;52.00;;;;;;5054140;28;20103;-67
2023/06/03 01:38:26;;;;;;;1.90;1.80;;;25.30;52.00;;;;;;5054356;28;20106;-66
2023/06/03 01:40:54;;;;;;;2.28;2.00;;;25.30;52.00;;;;;;5054296;28;20098;-67
2023/06/03 01:43:21;;;;;;;1.95;1.85;;;25.30;52.00;;;;;;5054472;28;20052;-66
2023/06/03 01:45:49;;;;;;;2.00;1.90;;;25.30;52.00;;;;;;5054750;28;20054;-67
2023/06/03 01:48:17;;;;;;;2.28;2.08;;;25.30;52.00;;;;;;5054146;28;20084;-67
2023/06/03 01:50:44;;;;;;;2.00;1.90;;;25.30;52.10;;;;;;5054611;28;20469;-66
2023/06/03 01:53:12;;;;;;;2.30;2.10;;;25.30;52.00;;;;;;5054319;28;20085;-66
2023/06/03 01:55:39;;;;;;;1.75;1.65;;;25.30;52.00;;;;;;5054137;28;20456;-66
2023/06/03 01:58:06;;;;;;;2.45;2.25;;;25.30;52.00;;;;;;5054230;28;20095;-66
2023/06/03 02:00:34;;;;;;;2.00;1.90;;;25.30;52.00;;;;;;5054479;28;20076;-67
2023/06/03 02:03:01;;;;;;;1.92;1.73;;;25.30;52.10;;;;;;5053738;28;20448;-66
2023/06/03 02:05:28;;;;;;;1.85;1.75;;;25.20;52.00;;;;;;5053444;28;20493;-66
2023/06/03 02:07:55;;;;;;;2.35;2.15;;;25.30;52.10;;;;;;5054159;28;20049;-66
2023/06/03 02:10:22;;;;;;;2.35;2.10;;;25.20;52.00;;;;;;5054326;28;20444;-67
2023/06/03 02:12:49;;;;;;;2.20;2.00;;;25.20;52.00;;;;;;5053748;28;20045;-67
2023/06/03 02:15:17;;;;;;;2.38;1.95;;;25.20;52.00;;;;;;5054166;28;20048;-67
2023/06/03 02:17:44;;;;;;;3.40;2.70;;;25.20;52.00;;;;;;5053869;28;20501;-67
2023/06/03 02:20:11;;;;;;;2.20;1.98;;;25.20;52.00;;;;;;5053702;28;20045;-67
2023/06/03 02:22:38;;;;;;;2.60;1.90;;;25.20;52.00;;;;;;5053784;28;20049;-67
2023/06/03 02:25:08;;;;;;;2.03;1.92;;;25.20;52.00;;;;;;5053809;28;20056;-67
2023/06/03 02:27:35;;;;;;;2.10;1.90;;;25.20;52.00;;;;;;5053410;28;20049;-67
2023/06/03 02:30:04;;;;;;;2.15;1.98;;;25.20;52.00;;;;;;5053555;28;20516;-67
2023/06/03 02:32:32;;;;;;;2.00;1.90;;;25.30;52.10;;;;;;5053445;28;20136;-66
2023/06/03 02:34:59;;;;;;;1.85;1.75;;;25.20;52.00;;;;;;5052843;28;20049;-67
2023/06/03 02:37:27;;;;;;;1.83;1.73;;;25.20;52.00;;;;;;5053920;28;20094;-67
2023/06/03 02:39:55;;;;;;;1.70;1.60;;;25.20;52.00;;;;;;5053849;28;20057;-67
2023/06/03 02:42:22;;;;;;;2.22;1.90;;;25.20;52.00;;;;;;5053086;28;20639;-67
2023/06/03 02:44:49;;;;;;;2.00;1.90;;;25.20;52.00;;;;;;5051946;28;20044;-67
2023/06/03 02:47:16;;;;;;;2.13;1.92;;;25.20;52.00;;;;;;5053241;28;20045;-67
2023/06/03 02:49:44;;;;;;;2.35;1.67;;;25.30;52.00;;;;;;5053461;28;20074;-66
2023/06/03 02:52:11;;;;;;;2.35;2.15;;;25.20;51.90;;;;;;5052735;28;20052;-66
2023/06/03 02:54:38;;;;;;;2.17;1.98;;;25.20;52.00;;;;;;5072488;28;20052;-67
2023/06/03 02:57:07;;;;;;;1.83;1.73;;;25.20;51.90;;;;;;5073260;28;20084;-66
2023/06/03 02:59:34;;;;;;;3.47;2.20;;;25.20;51.90;;;;;;5073191;28;20053;-67
2023/06/03 03:02:01;;;;;;;1.80;1.70;;;25.20;51.90;;;;;;5073218;28;20045;-67
2023/06/03 03:04:33;;;;;;;2.33;2.08;;;25.30;51.90;;;;;;5072975;28;20397;-67
2023/06/03 03:07:01;;;;;;;1.83;1.73;;;25.30;51.90;;;;;;5073394;28;20090;-67
2023/06/03 03:09:29;;;;;;;2.47;2.00;;;25.30;51.90;;;;;;5072041;28;20079;-67
2023/06/03 03:11:56;;;;;;;2.28;2.10;;;25.30;51.90;;;;;;5072352;28;20052;-67
2023/06/03 03:14:23;;;;;;;2.40;2.20;;;25.30;51.90;;;;;;5073146;28;20554;-67
2023/06/03 03:16:51;;;;;;;1.73;1.63;;;25.30;51.80;;;;;;5072623;28;20057;-67
2023/06/03 03:19:18;;;;;;;1.88;1.63;;;25.30;51.80;;;;;;5073242;28;20052;-67
2023/06/03 03:21:45;;;;;;;2.08;1.77;;;25.30;51.80;;;;;;5072917;28;20060;-67
2023/06/03 03:24:13;;;;;;;2.10;1.80;;;25.30;51.80;;;;;;5071832;28;20106;-67
2023/06/03 03:26:41;;;;;;;2.33;2.13;;;25.30;51.80;;;;;;5072470;28;20095;-67
2023/06/03 03:29:08;;;;;;;1.88;1.75;;;25.30;51.70;;;;;;5073099;28;20152;-67
2023/06/03 03:31:35;;;;;;;1.75;1.65;;;25.30;51.70;;;;;;5072880;28;20056;-67
2023/06/03 03:34:04;;;;;;;2.08;1.80;;;25.30;51.70;;;;;;5072847;28;20056;-67
2023/06/03 03:36:31;;;;;;;2.10;1.90;;;25.30;51.70;;;;;;5071153;28;20508;-69
2023/06/03 03:39:04;;;;;;;2.10;1.90;;;25.30;51.70;;;;;;5072745;28;20496;-67
2023/06/03 03:41:32;;;;;;;1.80;1.70;;;25.30;51.70;;;;;;5073092;28;20102;-68
2023/06/03 03:43:59;;;;;;;1.98;1.77;;;25.30;51.60;;;;;;5073034;28;20045;-67
2023/06/03 03:46:27;;;;;;;2.30;1.67;;;25.40;51.60;;;;;;5070973;28;20083;-67
2023/06/03 03:48:54;;;;;;;1.90;1.80;;;25.40;51.60;;;;;;5072838;28;20463;-67
2023/06/03 03:51:21;;;;;;;2.15;2.05;;;25.40;51.60;;;;;;5073007;28;20070;-67
2023/06/03 03:53:49;;;;;;;2.65;2.45;;;25.40;51.50;;;;;;5071206;28;20094;-67
2023/06/03 03:56:18;;;;;;;2.55;1.88;;;25.40;51.50;;;;;;5071904;28;20132;-67
2023/06/03 03:58:49;;;;;;;1.90;1.80;;;25.40;51.50;;;;;;5072819;28;20386;-67
2023/06/03 04:01:21;;;;;;;1.70;1.60;;;25.40;51.50;;;;;;5072598;28;20044;-67
2023/06/03 04:03:51;;;;;;;2.20;1.75;;;25.40;51.40;;;;;;5072550;28;20063;-67
2023/06/03 04:06:32;;;;;;;1.85;1.75;;;25.40;51.30;;;;;;5073227;28;20050;-67
2023/06/03 04:09:01;;;;;;;1.83;1.73;;;25.40;51.30;;;;;;5076393;28;20040;-67
2023/06/03 04:11:35;;;;;;;3.00;2.05;;;25.40;51.20;;;;;;5076677;28;20128;-67
2023/06/03 04:14:05;;;;;;;1.60;1.50;;;25.50;51.30;;;;;;5076636;28;20447;-67
2023/06/03 04:16:55;;;;;;;2.00;1.90;;;25.50;51.20;;;;;;5076090;28;20092;-67
2023/06/03 04:19:32;;;;;;;1.77;1.67;;;25.50;51.10;;;;;;5075451;28;20048;-67
2023/06/03 04:22:01;;;;;;;2.13;1.92;;;25.50;51.10;;;;;;5075065;28;20055;-67
2023/06/03 04:24:29;;;;;;;2.53;2.17;;;25.50;51.00;;;;;;5076313;28;20052;-67
2023/06/03 04:26:57;;;;;;;1.67;1.58;;;25.50;51.00;;;;;;5075670;28;20052;-67
2023/06/03 04:29:24;;;;;;;1.88;1.70;;;25.50;51.00;;;;;;5075681;28;20059;-67
2023/06/03 04:31:51;;;;;;;2.58;1.90;;;25.60;51.00;;;;;;5076268;28;20048;-67
2023/06/03 04:34:19;;;;;;;2.15;1.80;;;25.60;50.90;;;;;;5076128;28;20049;-67
2023/06/03 04:36:46;;;;;;;2.33;1.88;;;25.60;50.80;;;;;;5075772;28;20086;-67
2023/06/03 04:39:13;;;;;;;2.70;2.10;;;25.50;50.70;;;;;;5076042;28;20049;-67
2023/06/03 04:41:40;;;;;;;3.85;2.00;;;25.40;50.50;;;;;;5075761;28;20102;-67
2023/06/03 04:44:08;;;;;;;3.55;1.92;;;25.30;50.50;;;;;;5075339;28;20048;-67
2023/06/03 04:46:35;;;;;;;2.30;2.10;;;25.10;51.30;;;;;;5075375;28;20131;-67
2023/06/03 04:49:03;;;;;;;5.03;1.92;;;24.80;51.00;;;;;;5075272;28;20055;-67
2023/06/03 04:51:33;;;;;;;2.00;1.90;;;24.40;51.00;;;;;;5075608;28;20088;-67
2023/06/03 04:54:01;;;;;;;;;;;24.10;51.10;;;;;;5073853;28;20048;-67
2023/06/03 04:56:31;;;;;;;2.15;1.92;;;23.70;51.00;;;;;;5054151;28;19972;-67
2023/06/03 04:59:03;;;;;;;3.13;2.35;;;23.30;51.40;;;;;;5054205;28;20057;-67
2023/06/03 05:01:36;;;;;;;2.50;2.30;;;23.00;51.40;;;;;;5055346;28;20048;-67
2023/06/03 05:04:08;;;;;;;2.30;2.10;;;22.70;52.20;;;;;;5055374;28;20505;-66
2023/06/03 05:06:36;;;;;;;2.70;2.50;;;22.40;53.00;;;;;;5055520;28;20053;-67
2023/06/03 05:09:03;;;;;;;2.90;2.30;;;22.20;53.30;;;;;;5055043;28;20545;-67
2023/06/03 05:11:31;;;;;;;2.83;2.55;;;22.00;53.30;;;;;;5055348;28;20053;-67
2023/06/03 05:13:58;;;;;;;4.10;2.10;;;21.80;54.00;;;;;;5055450;28;20041;-67
2023/06/03 05:16:25;;;;;;;2.47;2.28;;;21.60;54.10;;;;;;5054982;28;20053;-67
2023/06/03 05:18:53;;;;;;;2.97;2.70;;;21.50;53.60;;;;;;5054716;28;20063;-67
2023/06/03 05:21:20;;;;;;;2.55;2.33;;;21.30;54.50;;;;;;5054840;28;20049;-67
2023/06/03 05:23:47;;;;;;;4.97;2.50;;;21.10;55.70;;;;;;5054900;28;20098;-66
2023/06/03 05:26:14;;;;;;;3.45;3.03;;;21.00;54.40;;;;;;5055129;28;20133;-67
2023/06/03 05:28:42;;;;;;;2.83;2.63;;;20.90;54.60;;;;;;5054771;28;20041;-66
2023/06/03 05:31:09;;;;;;;3.75;2.60;;;20.80;55.40;;;;;;5054648;28;20071;-66
2023/06/03 05:33:36;;;;;;;4.60;2.83;;;20.70;55.00;;;;;;5055040;28;20045;-67
2023/06/03 05:36:05;;;;;;;2.70;2.50;;;20.60;54.50;;;;;;5053508;28;20053;-67
2023/06/03 05:38:32;;;;;;;2.88;2.50;;;20.50;56.20;;;;;;5054553;28;20508;-67
2023/06/03 05:41:00;;;;;;;3.55;2.50;;;20.40;56.00;;;;;;5054533;28;20075;-67
2023/06/03 05:43:27;;;;;;;3.60;2.53;;;20.30;55.00;;;;;;5054904;28;20049;-67
2023/06/03 05:45:54;;;;;;;6.32;2.95;;;20.20;55.40;;;;;;5053332;28;20432;-66
2023/06/03 05:48:22;;;;;;;2.75;2.55;;;20.10;56.40;;;;;;5054370;28;20051;-66
2023/06/03 05:50:51;;;;;;;2.90;2.58;;;20.10;56.00;;;;;;5054567;28;20048;-68
2023/06/03 05:53:20;;;;;;;2.75;2.55;;;20.00;55.60;;;;;;5054630;28;20095;-68
2023/06/03 05:55:48;;;;;;;3.20;2.90;;;20.00;55.90;;;;;;5054439;28;20056;-68
2023/06/03 05:58:17;;;;;;;3.45;3.15;;;19.90;56.30;;;;;;5053108;28;20410;-68
2023/06/03 06:00:44;;;;;;;2.72;2.28;;;19.90;55.70;;;;;;5054066;28;20087;-68
2023/06/03 06:03:16;;;;;;;2.80;2.60;;;19.80;55.70;;;;;;5054242;28;20049;-68
2023/06/03 06:05:45;;;;;;;2.88;2.60;;;19.80;56.00;;;;;;5053924;28;20553;-68
2023/06/03 06:08:12;;;;;;;5.45;2.50;;;19.80;56.00;;;;;;5052990;28;20409;-68
2023/06/03 06:10:39;;;;;;;5.00;2.83;;;19.80;56.20;;;;;;5054162;28;20098;-68
2023/06/03 06:13:06;;;;;;;3.03;2.70;;;19.70;56.60;;;;;;5054051;28;20041;-69
2023/06/03 06:15:34;;;;;;;2.80;2.60;;;19.70;55.40;;;;;;5052899;28;20049;-68
2023/06/03 06:18:01;;;;;;;3.15;2.70;;;19.70;55.90;;;;;;5070636;28;20044;-69
2023/06/03 06:20:28;;;;;;;3.30;3.00;;;19.70;56.40;;;;;;5073947;28;20055;-68
2023/06/03 06:22:55;;;;;;;2.60;2.40;;;19.70;56.70;;;;;;5073711;28;20056;-68
2023/06/03 06:25:23;;;;;;;5.10;2.72;;;19.70;55.80;;;;;;5073655;28;20412;-68
2023/06/03 06:27:51;;;;;;;3.83;3.33;;;19.70;55.70;;;;;;5073773;28;20106;-68
2023/06/03 06:30:19;;;;;;;6.03;2.97;;;19.60;56.50;;;;;;5072860;28;20121;-66
2023/06/03 06:32:50;;;;;;;4.03;2.72;;;19.60;56.50;;;;;;5071862;28;20068;-65
2023/06/03 06:35:19;;;;;;;3.47;3.00;;;19.60;56.50;;;;;;5073514;28;20088;-66
2023/06/03 06:37:47;;;;;;;3.22;2.60;;;19.60;55.70;;;;;;5073469;28;20052;-66
2023/06/03 06:40:19;;;;;;;3.25;2.95;;;19.60;56.10;;;;;;5073307;28;20099;-66
2023/06/03 06:42:47;;;;;;;3.53;2.97;;;19.60;56.60;;;;;;5073913;28;20416;-66
2023/06/03 06:45:27;;;;;;;3.00;2.70;;;19.60;56.50;;;;;;5073877;28;20049;-66
2023/06/03 06:48:04;;;;;;;5.30;3.10;;;19.60;56.00;;;;;;5073103;28;20052;-67
2023/06/03 06:50:47;;;;;;;3.25;2.95;;;19.60;55.60;;;;;;5073211;28;20558;-68
2023/06/03 06:53:15;;;;;;;3.60;3.00;;;19.50;56.50;;;;;;5067630;28;20045;-69
2023/06/03 06:56:08;;;;;;;3.17;2.78;;;19.50;56.40;;;;;;5052432;28;20055;-68
2023/06/03 06:58:37;;;;;;;3.90;3.20;;;19.50;55.70;;;;;;5053138;28;20512;-68
2023/06/03 07:01:09;;;;;;;5.70;2.78;;;19.50;55.60;;;;;;5053390;28;20045;-69
2023/06/03 07:03:37;;;;;;;4.82;3.15;;;19.50;56.50;;;;;;5053258;28;20088;-66
2023/06/03 07:06:04;;;;;;;3.30;2.60;;;19.50;56.40;;;;;;5053428;28;20150;-65
2023/06/03 07:08:32;;;;;;;3.75;2.95;;;19.50;56.70;;;;;;5052988;28;20053;-66
2023/06/03 07:11:01;;;;;;;3.95;2.97;;;19.50;55.90;;;;;;5052935;28;20504;-66
2023/06/03 07:13:29;;;;;;;2.58;2.28;;;19.50;55.60;;;;;;5053069;28;20532;-66
2023/06/03 07:15:56;;;;;;;4.45;3.13;;;19.50;56.50;;;;;;5053252;28;20053;-65
2023/06/03 07:18:25;;;;;;;3.45;2.63;;;19.50;56.60;;;;;;5053371;28;20186;-66
2023/06/03 07:20:54;;;;;;;4.70;2.80;;;19.50;55.80;;;;;;5051897;28;20114;-65
2023/06/03 07:23:27;;;;;;;3.50;2.72;;;19.50;55.40;;;;;;5053301;28;20057;-66
2023/06/03 07:25:55;;;;;;;3.38;2.75;;;19.50;56.80;;;;;;5052908;28;20547;-65
2023/06/03 07:28:30;;;;;;;4.15;2.85;;;19.50;56.50;;;;;;5051766;28;20084;-66
2023/06/03 07:30:59;;;;;;;3.22;2.85;;;19.50;55.90;;;;;;5052547;28;20045;-65
2023/06/03 07:33:29;;;;;;;5.18;3.20;;;19.60;55.30;;;;;;5053202;28;20042;-66
2023/06/03 07:35:59;;;;;;;2.97;2.67;;;19.60;56.10;;;;;;5052211;28;20057;-66
2023/06/03 07:38:45;;;;;;;;;;;19.60;55.60;;;;;;5052077;28;20128;-66
2023/06/03 07:41:30;;;;;;;3.95;2.83;;;19.60;55.80;;;;;;5053945;28;19920;-67
2023/06/03 07:43:58;;;;;;;3.00;2.42;;;19.60;56.40;;;;;;5056792;28;20045;-66
2023/06/03 07:46:37;;;;;;;3.92;3.15;;;19.60;55.60;;;;;;5056590;28;20095;-67
2023/06/03 07:49:08;;;;;;;3.40;2.75;;;19.60;56.00;;;;;;5070839;28;20401;-66
2023/06/03 07:51:39;;;;;;;3.30;3.00;;;19.60;56.50;;;;;;5076920;28;20075;-66
2023/06/03 07:54:07;;;;;;;3.05;2.78;;;19.60;56.30;;;;;;5076700;28;20084;-66
2023/06/03 07:56:34;;;;;;;2.63;2.42;;;19.50;55.90;;;;;;5076510;28;20083;-66
2023/06/03 07:59:03;;;;;;;4.05;2.65;;;19.50;55.80;;;;;;5076761;28;20044;-66
2023/06/03 08:01:33;;;;;;;3.47;3.13;;;19.50;56.60;;;;;;5076094;28;20052;-67
2023/06/03 08:04:02;;;;;;;3.38;2.40;;;19.60;56.10;;;;;;5076741;28;20420;-66
2023/06/03 08:06:29;;;;;;;3.55;2.42;;;19.60;55.70;;;;;;5076429;28;20083;-66
2023/06/03 08:08:58;;;;;;;3.78;2.50;;;19.60;56.00;;;;;;5076256;28;20080;-66
2023/06/03 08:11:25;;;;;;;4.15;3.08;;;19.60;55.80;;;;;;5076075;28;20496;-66
2023/06/03 08:13:55;;;;;;;4.35;2.78;;;19.60;56.00;;;;;;5076210;28;20094;-66
2023/06/03 08:16:22;;;;;;;3.30;2.63;;;19.50;56.50;;;;;;5076277;28;20531;-67
2023/06/03 08:18:52;;;;;;;2.72;2.53;;;19.60;55.70;;;;;;5076087;28;20087;-66
2023/06/03 08:21:19;;;;;;;3.03;2.70;;;19.60;55.60;;;;;;5075974;28;20052;-66
2023/06/03 08:23:46;;;;;;;2.78;2.50;;;19.50;55.80;;;;;;5075423;28;20094;-66
2023/06/03 08:26:14;;;;;;;3.60;2.83;;;19.60;56.30;;;;;;5076336;28;20094;-66
2023/06/03 08:28:41;;;;;;;4.60;3.50;;;19.60;55.70;;;;;;5076531;28;20048;-66
2023/06/03 08:31:08;;;;;;;5.28;3.20;;;19.60;55.20;;;;;;5075880;28;20044;-66
2023/06/03 08:33:35;;;;;;;4.57;3.05;;;19.50;56.40;;;;;;5058573;28;20119;-66
2023/06/03 08:36:02;;;;;;;3.97;3.08;;;19.60;56.80;;;;;;5076173;28;20048;-66
2023/06/03 08:38:30;;;;;;;3.35;3.00;;;19.60;55.40;;;;;;5075462;28;20122;-66
2023/06/03 08:40:57;;;;;;;3.65;2.88;;;19.60;55.60;;;;;;5075684;28;20048;-66
2023/06/03 08:43:33;;;;;;;3.70;2.92;;;19.60;56.20;;;;;;5075995;28;20049;-67
2023/06/03 08:46:32;;;;;;;5.90;3.08;;;19.60;55.60;;;;;;5075420;28;20131;-67
2023/06/03 08:49:04;;;;;;;4.07;2.50;;;19.60;55.30;;;;;;5074735;28;20048;-66
2023/06/03 08:51:39;;;;;;;3.55;3.00;;;19.50;55.80;;;;;;5075631;28;20048;-66
2023/06/03 08:54:13;;;;;;;2.70;2.42;;;19.50;55.80;;;;;;5074532;28;20055;-66
2023/06/03 08:56:43;;;;;;;4.47;2.72;;;19.40;56.20;;;;;;5075562;28;20408;-66
2023/06/03 08:59:15;;;;;;;2.95;2.58;;;19.40;56.40;;;;;;5075706;28;20045;-66
2023/06/03 09:01:46;;;;;;;3.10;2.63;;;19.40;55.70;;;;;;5073781;28;20048;-67
2023/06/03 09:04:13;;;;;;;;;;;19.40;56.20;;;;;;5075855;28;20105;-66
2023/06/03 09:06:46;;;;;;;3.47;3.08;;;19.40;56.80;;;;;;5074073;28;20368;-66
2023/06/03 09:09:15;;;;;;;3.08;2.70;;;19.40;56.60;;;;;;5075276;28;20481;-66
2023/06/03 09:11:45;;;;;;;4.90;2.85;;;19.40;56.00;;;;;;5074539;28;20056;-66
2023/06/03 09:14:12;;;;;;;2.97;2.45;;;19.30;56.20;;;;;;5075579;28;20150;-66
2023/06/03 09:16:40;;;;;;;3.63;2.80;;;19.30;56.90;;;;;;5074963;28;20052;-66
2023/06/03 09:19:07;;;;;;;5.07;3.05;;;19.30;56.50;;;;;;5075028;28;20493;-66
2023/06/03 09:21:37;;;;;;;2.78;2.58;;;19.20;56.10;;;;;;5057534;28;20098;-67
2023/06/03 09:24:04;;;;;;;4.60;3.50;;;19.10;56.70;;;;;;5073322;28;20102;-66
2023/06/03 09:26:32;;;;;;;3.35;2.67;;;19.10;57.00;;;;;;5074870;28;20127;-67
2023/06/03 09:28:59;;;;;;;4.85;2.83;;;19.10;57.00;;;;;;5074776;28;20492;-66
2023/06/03 09:31:28;;;;;;;3.13;2.30;;;19.10;57.30;;;;;;5074634;28;20588;-66
2023/06/03 09:33:55;;;;;;;2.95;2.65;;;19.10;56.60;;;;;;5074780;28;20127;-66
2023/06/03 09:36:22;;;;;;;4.53;2.80;;;19.10;56.50;;;;;;5074202;28;20703;-66
2023/06/03 09:38:52;;;;;;;5.47;2.75;;;19.10;56.90;;;;;;5074977;28;20041;-66
2023/06/03 09:41:20;;;;;;;4.05;2.60;;;19.00;57.30;;;;;;5074025;28;20084;-66
2023/06/03 09:43:56;;;;;;;3.03;2.58;;;19.00;57.00;;;;;;5074923;28;20048;-66
2023/06/03 09:46:26;;;;;;;3.65;2.80;;;19.00;56.80;;;;;;5074063;28;20455;-66
2023/06/03 09:48:53;;;;;;;4.18;2.92;;;19.00;57.40;;;;;;5073405;28;20471;-67
2023/06/03 09:51:38;;;;;;;3.63;3.15;;;19.00;57.50;;;;;;5074064;28;20049;-66
2023/06/03 09:54:13;;;;;;;4.13;2.95;;;19.00;57.20;;;;;;5074205;28;20489;-66
2023/06/03 09:56:42;;;;;;;3.08;2.50;;;19.00;57.60;;;;;;5074260;28;20542;-67
2023/06/03 09:59:14;;;;;;;3.22;2.50;;;19.00;57.00;;;;;;5089825;28;20485;-66
2023/06/03 10:01:43;;;;;;;3.35;2.50;;;19.00;57.20;;;;;;5073419;28;20504;-66
2023/06/03 10:04:10;;;;;;;4.55;3.17;;;19.00;57.30;;;;;;5074328;28;20048;-66
2023/06/03 10:06:38;;;;;;;2.85;2.58;;;19.00;57.50;;;;;;5059134;28;20390;-67
2023/06/03 10:09:20;;;;;;;3.53;3.00;;;19.00;57.00;;;;;;5053835;28;20053;-67
2023/06/03 10:11:49;;;;;;;4.13;2.75;;;19.00;56.40;;;;;;5053862;28;20048;-66
2023/06/03 10:14:27;;;;;;;3.60;2.70;;;19.00;57.60;;;;;;5054238;28;20059;-66
2023/06/03 10:17:09;;;;;;;3.25;2.70;;;19.00;57.40;;;;;;5052904;28;20483;-66
2023/06/03 10:19:40;;;;;;;4.13;3.30;;;19.00;56.80;;;;;;5054132;28;20051;-67
2023/06/03 10:22:10;;;;;;;2.95;2.65;;;19.00;56.80;;;;;;5054013;28;20057;-66
2023/06/03 10:24:42;;;;;;;3.05;2.75;;;19.00;57.60;;;;;;5053708;28;20045;-67
2023/06/03 10:27:10;;;;;;;3.10;2.78;;;19.00;57.60;;;;;;5053461;28;20045;-66
2023/06/03 10:29:38;;;;;;;3.85;2.92;;;19.00;57.30;;;;;;5054045;28;20052;-67
2023/06/03 10:32:07;;;;;;;3.60;2.70;;;19.00;57.30;;;;;;5052752;28;20060;-66
2023/06/03 10:34:42;;;;;;;4.38;2.95;;;18.90;57.60;;;;;;5053663;28;20052;-66
2023/06/03 10:37:13;;;;;;;4.32;3.75;;;18.90;58.20;;;;;;5053584;28;20052;-66
2023/06/03 10:39:44;;;;;;;3.38;3.08;;;19.00;57.50;;;;;;5053572;28;20068;-66
2023/06/03 10:42:12;;;;;;;4.63;3.28;;;18.90;57.20;;;;;;5053818;28;20094;-66
2023/06/03 10:44:40;;;;;;;3.10;2.80;;;19.00;57.30;;;;;;5053406;28;20489;-68
2023/06/03 10:47:21;;;;;;;3.15;2.85;;;18.90;57.30;;;;;;5053593;28;20048;-66
2023/06/03 10:49:59;;;;;;;2.60;2.40;;;18.90;57.30;;;;;;5052190;28;20045;-67
2023/06/03 10:53:05;;;;;;;3.55;2.83;;;19.00;57.80;;;;;;5053651;28;20049;-66
2023/06/03 10:56:01;;;;;;;3.88;2.85;;;19.00;57.90;;;;;;5052447;28;20045;-66
2023/06/03 10:58:29;;;;;;;3.78;3.35;;;19.00;56.30;;;;;;5053660;28;20049;-66
2023/06/03 11:00:58;;;;;;;4.15;2.65;;;19.00;57.30;;;;;;5053145;28;20485;-66
2023/06/03 11:03:31;;;;;;;4.28;2.90;;;19.00;57.20;;;;;;5053005;28;20102;-66
2023/06/03 11:06:38;;;;;;;4.63;2.88;;;19.10;57.00;;;;;;5053482;28;20045;-66
2023/06/03 11:09:08;;;;;;;4.45;2.90;;;19.10;57.10;;;;;;5053095;28;20524;-66
2023/06/03 11:11:58;;;;;;;3.35;2.92;;;19.20;56.50;;;;;;5052974;28;20048;-66
2023/06/03 11:14:50;;;;;;;3.80;3.38;;;19.20;56.40;;;;;;5052295;28;20049;-66
2023/06/03 11:17:19;;;;;;;3.15;2.85;;;19.30;56.60;;;;;;5051979;28;20049;-66
2023/06/03 11:19:50;;;;;;;3.60;2.90;;;19.40;56.80;;;;;;5053288;28;20053;-67
2023/06/03 11:22:38;;;;;;;3.28;2.90;;;19.30;55.70;;;;;;5052851;28;20484;-66
2023/06/03 11:25:06;;;;;;;6.25;3.13;;;19.40;56.10;;;;;;5052905;28;20083;-66
2023/06/03 11:27:33;;;;;;;3.97;3.45;;;19.40;57.00;;;;;;5052891;28;20049;-66
2023/06/03 11:30:02;;;;;;;3.95;3.58;;;19.40;56.20;;;;;;5052766;28;20048;-66
2023/06/03 11:32:36;;;;;;;4.00;3.05;;;19.40;56.50;;;;;;5052913;28;20481;-66
2023/06/03 11:35:28;;;;;;;4.18;3.17;;;19.50;56.40;;;;;;5053180;28;20080;-67
2023/06/03 11:37:55;;;;;;;4.95;3.15;;;19.50;56.40;;;;;;5052167;28;20171;-67
2023/06/03 11:40:23;;;;;;;3.55;2.88;;;19.50;56.30;;;;;;5053002;28;20401;-66
2023/06/03 11:43:10;;;;;;;3.90;2.90;;;19.40;56.50;;;;;;5052886;28;20455;-66
2023/06/03 11:45:38;;;;;;;3.83;3.33;;;19.50;56.70;;;;;;5051691;28;20144;-66
2023/06/03 11:48:09;;;;;;;4.43;3.55;;;19.50;56.30;;;;;;5052968;28;20052;-66
2023/06/03 11:50:48;;;;;;;4.25;3.22;;;19.40;56.50;;;;;;5071395;28;20084;-66
2023/06/03 11:53:33;;;;;;;5.00;3.08;;;19.50;56.60;;;;;;5073064;28;20048;-66
2023/06/03 11:56:08;;;;;;;3.83;3.10;;;19.50;56.50;;;;;;5072959;28;20040;-67
2023/06/03 11:58:38;;;;;;;3.38;3.00;;;19.50;56.50;;;;;;5072822;28;20452;-66
2023/06/03 12:01:19;;;;;;;5.25;3.50;;;19.50;56.30;;;;;;5072484;28;20048;-67
2023/06/03 12:04:00;;;;;;;3.25;2.80;;;19.60;56.30;;;;;;5071595;28;20097;-66
2023/06/03 12:06:35;;;;;;;4.32;3.33;;;19.60;56.30;;;;;;5072546;28;20049;-66
2023/06/03 12:09:02;;;;;;;4.00;3.10;;;19.60;56.40;;;;;;5072795;28;20048;-67
2023/06/03 12:11:32;;;;;;;3.72;3.10;;;19.60;56.50;;;;;;5072441;28;20437;-66
2023/06/03 12:13:59;;;;;;;4.25;3.42;;;19.50;56.50;;;;;;5072815;28;20451;-67
2023/06/03 12:16:35;;;;;;;3.83;3.13;;;19.50;56.70;;;;;;5072722;28;20049;-66
2023/06/03 12:19:05;;;;;;;4.10;3.22;;;19.50;56.70;;;;;;5072455;28;20048;-67
2023/06/03 12:21:34;;;;;;;5.13;3.53;;;19.50;56.70;;;;;;5072838;28;20053;-66
2023/06/03 12:24:12;;;;;;;4.82;3.70;;;19.50;56.80;;;;;;5055438;28;20053;-66
2023/06/03 12:26:41;;;;;;;4.28;3.08;;;19.50;56.60;;;;;;5072519;28;20052;-66
2023/06/03 12:29:11;;;;;;;3.92;3.13;;;19.50;57.00;;;;;;5075179;28;20086;-66
2023/06/03 12:31:38;;;;;;;4.47;3.17;;;19.50;57.30;;;;;;5074506;28;20048;-66
2023/06/03 12:34:06;;;;;;;3.67;3.15;;;19.50;57.50;;;;;;5075822;28;20484;-66
2023/06/03 12:36:47;;;;;;;4.68;2.92;;;19.60;56.60;;;;;;5075431;28;20052;-66
2023/06/03 12:39:15;;;;;;;3.05;2.70;;;19.60;56.30;;;;;;5075205;28;20045;-66
2023/06/03 12:41:50;;;;;;;3.75;3.20;;;19.60;57.40;;;;;;5076060;28;20048;-66
2023/06/03 12:44:18;;;;;;;3.90;3.25;;;19.70;56.80;;;;;;5074883;28;20056;-66
2023/06/03 12:47:01;;;;;;;4.32;3.30;;;19.70;55.80;;;;;;5075637;28;20044;-66
2023/06/03 12:49:30;;;;;;;3.95;3.55;;;19.70;56.90;;;;;;5075554;28;20052;-66
2023/06/03 12:52:19;;;;;;;3.47;3.05;;;19.70;57.30;;;;;;5075348;28;20049;-66
2023/06/03 12:54:52;;;;;;;5.57;3.80;;;19.70;55.90;;;;;;5075386;28;20048;-66
2023/06/03 12:57:21;;;;;;;3.47;3.17;;;19.70;56.70;;;;;;5074575;28;20052;-67
2023/06/03 13:00:07;;;;;;;5.60;3.88;;;19.70;57.20;;;;;;5075381;28;20048;-66
2023/06/03 13:02:37;;;;;;;3.20;2.72;;;19.70;56.20;;;;;;5075383;28;20052;-66
2023/06/03 13:05:05;;;;;;;3.78;3.38;;;19.70;56.20;;;;;;5075065;28;20048;-67